Time;durP1;ratioP1;P1;durP2;ratioP2;P2;SDS_P1;SDS_P2;PMS_P1;PMS_P2;Temp;Humidity;BMP_temperature;BMP_pressure;BME280_temperature;BME280_humidity;BME280_pressure;Samples;Min_cycle;Max_cycle;Signal;HPM_P1;HPM_P2
2023/10/26 00:01:22;;;;;;;42.50;17.50;;;;;;;7.97;100.00;98656.44;105492;1253;72488;-60
2023/10/26 00:03:50;;;;;;;56.10;21.10;;;;;;;8.01;100.00;98653.05;105447;1258;81874;-60
2023/10/26 00:06:18;;;;;;;46.00;18.70;;;;;;;8.07;100.00;98653.25;105489;1253;71720;-60
2023/10/26 00:08:47;;;;;;;30.30;14.50;;;;;;;8.12;100.00;98653.84;105417;1253;69129;-60
2023/10/26 00:11:15;;;;;;;31.80;16.50;;;;;;;8.18;100.00;98647.98;105413;1253;69196;-60
2023/10/26 00:13:43;;;;;;;46.60;18.20;;;;;;;8.20;100.00;98645.78;105442;1253;73085;-60
2023/10/26 00:16:11;;;;;;;39.20;16.80;;;;;;;8.20;100.00;98643.48;105430;1253;82029;-60
2023/10/26 00:18:39;;;;;;;44.20;17.50;;;;;;;8.24;100.00;98643.45;105424;1253;73068;-60
2023/10/26 00:21:08;;;;;;;25.20;14.80;;;;;;;8.26;100.00;98640.71;105503;1257;69194;-60
2023/10/26 00:23:36;;;;;;;24.90;14.50;;;;;;;8.31;100.00;98640.30;105453;1256;69188;-60
2023/10/26 00:26:05;;;;;;;22.80;13.50;;;;;;;8.35;100.00;98638.87;105432;1258;73576;-60
2023/10/26 00:28:33;;;;;;;19.80;13.70;;;;;;;8.40;100.00;98639.81;105465;1258;82116;-60
2023/10/26 00:31:01;;;;;;;23.30;14.30;;;;;;;8.44;100.00;98641.48;105404;1259;70258;-60
2023/10/26 00:33:30;;;;;;;20.40;14.50;;;;;;;8.49;100.00;98642.41;105546;1257;69056;-60
2023/10/26 00:35:58;;;;;;;20.40;14.00;;;;;;;8.54;100.00;98638.86;105455;1253;69114;-60
2023/10/26 00:38:27;;;;;;;24.00;15.30;;;;;;;8.57;100.00;98636.59;105401;1258;74134;-60
2023/10/26 00:40:56;;;;;;;23.30;15.40;;;;;;;8.60;100.00;98640.26;105472;1253;81958;-60
2023/10/26 00:43:25;;;;;;;24.00;14.60;;;;;;;8.61;100.00;98641.90;105453;1253;72385;-60
2023/10/26 00:45:54;;;;;;;20.10;15.20;;;;;;;8.64;100.00;98639.34;105554;1257;69196;-60
2023/10/26 00:48:23;;;;;;;16.60;13.10;;;;;;;8.65;100.00;98621.86;105562;1257;69164;-60
2023/10/26 00:50:51;;;;;;;17.80;13.40;;;;;;;8.67;100.00;98600.46;105541;1253;72711;-60
2023/10/26 00:53:20;;;;;;;16.90;13.30;;;;;;;8.71;100.00;98594.70;105465;1253;81210;-60
2023/10/26 00:55:50;;;;;;;18.90;15.40;;;;;;;8.71;100.00;98602.16;105529;1253;71676;-60
2023/10/26 00:58:18;;;;;;;19.60;15.60;;;;;;;8.71;100.00;98602.70;105479;1253;69158;-60
2023/10/26 01:00:46;;;;;;;21.80;16.60;;;;;;;8.71;100.00;98592.93;105501;1257;69188;-60
2023/10/26 01:03:15;;;;;;;20.20;16.10;;;;;;;8.70;100.00;98591.06;105536;1253;73006;-60
2023/10/26 01:05:43;;;;;;;20.90;16.30;;;;;;;8.73;100.00;98589.73;105455;1257;81800;-60
2023/10/26 01:08:12;;;;;;;19.80;15.70;;;;;;;8.73;100.00;98587.62;105452;1258;71289;-60
2023/10/26 01:10:40;;;;;;;19.80;16.10;;;;;;;8.73;100.00;98585.52;105504;1259;69099;-60
2023/10/26 01:13:08;;;;;;;23.30;17.50;;;;;;;8.75;100.00;98585.43;105480;1259;69203;-60
2023/10/26 01:15:37;;;;;;;25.70;17.70;;;;;;;8.77;100.00;98583.20;105381;1253;72995;-60
2023/10/26 01:18:06;;;;;;;23.90;17.90;;;;;;;8.80;100.00;98579.91;105485;1253;82239;-60
2023/10/26 01:20:35;;;;;;;23.10;16.80;;;;;;;8.82;100.00;98575.79;105503;1253;71329;-60
2023/10/26 01:23:03;;;;;;;24.10;17.80;;;;;;;8.83;100.00;98577.80;105436;1259;69170;-60
2023/10/26 01:25:31;;;;;;;26.60;18.10;;;;;;;8.83;100.00;98574.45;105545;1253;69090;-60
2023/10/26 01:27:59;;;;;;;31.80;19.30;;;;;;;8.85;100.00;98576.47;105412;1253;72741;-60
2023/10/26 01:30:28;;;;;;;53.30;23.90;;;;;;;8.87;100.00;98579.99;105440;1257;81556;-60
2023/10/26 01:32:56;;;;;;;38.60;21.10;;;;;;;8.88;100.00;98571.20;105464;1258;71631;-60
2023/10/26 01:35:25;;;;;;;26.50;18.30;;;;;;;8.89;100.00;98569.62;105440;1266;69127;-60
2023/10/26 01:37:54;;;;;;;24.70;17.70;;;;;;;8.88;100.00;98565.12;105487;1256;69192;-60
2023/10/26 01:40:22;;;;;;;40.90;21.30;;;;;;;8.88;100.00;98566.33;105462;1259;72779;-60
2023/10/26 01:42:50;;;;;;;52.70;24.00;;;;;;;8.89;100.00;98564.39;105447;1256;81527;-60
2023/10/26 01:45:19;;;;;;;35.60;20.20;;;;;;;8.91;100.00;98559.19;105468;1259;71634;-60
2023/10/26 01:47:47;;;;;;;49.20;23.10;;;;;;;8.92;100.00;98555.98;105477;1259;70216;-60
2023/10/26 01:50:16;;;;;;;47.70;22.30;;;;;;;8.93;100.00;98550.56;105426;1253;69177;-61
2023/10/26 01:52:44;;;;;;;38.50;20.80;;;;;;;8.93;100.00;98539.75;105551;1253;74008;-60
2023/10/26 01:55:12;;;;;;;41.00;21.70;;;;;;;8.94;100.00;98536.87;105413;1259;81255;-60
2023/10/26 01:57:41;;;;;;;45.70;23.00;;;;;;;8.93;100.00;98533.98;105418;1257;71678;-61
2023/10/26 02:00:09;;;;;;;28.00;18.80;;;;;;;8.92;100.00;98532.13;105376;1258;69072;-60
2023/10/26 02:02:41;;;;;;;28.60;18.40;;;;;;;8.94;100.00;98524.85;105421;1254;69245;-60
2023/10/26 02:05:09;;;;;;;30.00;19.40;;;;;;;8.96;100.00;98519.89;105500;1258;73215;-61
2023/10/26 02:07:38;;;;;;;45.40;22.70;;;;;;;8.98;100.00;98511.91;105508;1257;82590;-62
2023/10/26 02:10:07;;;;;;;38.20;22.30;;;;;;;9.00;100.00;98506.21;105466;1258;70654;-62
2023/10/26 02:12:35;;;;;;;41.10;23.70;;;;;;;9.02;100.00;98500.69;105510;1259;69077;-61
2023/10/26 02:15:04;;;;;;;25.60;17.10;;;;;;;9.04;100.00;98499.38;105458;1266;69259;-63
2023/10/26 02:17:32;;;;;;;23.60;17.00;;;;;;;9.04;100.00;98495.71;105562;1257;71484;-64
2023/10/26 02:20:00;;;;;;;24.50;16.90;;;;;;;9.05;100.00;98495.11;105360;1259;81691;-63
2023/10/26 02:22:29;;;;;;;22.80;16.20;;;;;;;9.06;100.00;98488.95;105295;1259;71705;-64
2023/10/26 02:24:57;;;;;;;24.80;17.70;;;;;;;9.08;100.00;98480.98;105397;1258;69126;-64
2023/10/26 02:27:25;;;;;;;32.60;19.10;;;;;;;9.09;100.00;98481.60;105256;1265;69184;-63
2023/10/26 02:29:53;;;;;;;28.10;18.80;;;;;;;9.12;100.00;98482.52;105222;1259;73953;-63
2023/10/26 02:32:22;;;;;;;32.50;19.10;;;;;;;9.13;100.00;98478.42;105445;1259;81635;-63
2023/10/26 02:34:50;;;;;;;30.90;19.90;;;;;;;9.15;100.00;98479.33;105403;1258;73084;-63
2023/10/26 02:37:19;;;;;;;28.10;19.00;;;;;;;9.17;100.00;98475.38;105370;1260;69164;-63
2023/10/26 02:39:47;;;;;;;22.70;16.50;;;;;;;9.18;100.00;98472.56;105303;1260;69328;-63
2023/10/26 02:42:15;;;;;;;20.80;16.20;;;;;;;9.16;100.00;98473.89;105420;1258;72089;-63
2023/10/26 02:44:44;;;;;;;21.60;15.70;;;;;;;9.14;100.00;98468.45;105260;1259;81475;-63
2023/10/26 02:47:12;;;;;;;18.50;15.00;;;;;;;9.13;100.00;98464.30;105337;1256;72094;-63
2023/10/26 02:49:40;;;;;;;23.00;15.60;;;;;;;9.12;100.00;98463.45;105377;1258;69113;-63
2023/10/26 02:52:09;;;;;;;20.30;15.50;;;;;;;9.13;100.00;98463.42;105393;1254;69188;-63
2023/10/26 02:54:37;;;;;;;20.50;16.30;;;;;;;9.14;100.00;98458.17;105400;1258;73335;-63
2023/10/26 02:57:05;;;;;;;19.30;15.70;;;;;;;9.13;100.00;98453.48;105388;1259;82749;-63
2023/10/26 02:59:34;;;;;;;19.10;14.90;;;;;;;9.15;100.00;98453.02;105459;1255;70739;-63
2023/10/26 03:02:05;;;;;;;22.90;15.50;;;;;;;9.15;100.00;98452.81;105472;1254;69166;-63
2023/10/26 03:04:37;;;;;;;23.60;16.20;;;;;;;9.17;100.00;98454.30;105283;1258;69293;-63
2023/10/26 03:07:05;;;;;;;20.90;15.90;;;;;;;9.18;100.00;98447.27;105301;1258;71336;-63
2023/10/26 03:09:34;;;;;;;18.60;15.20;;;;;;;9.20;100.00;98447.00;105406;1268;83015;-63
2023/10/26 03:12:03;;;;;;;22.10;16.70;;;;;;;9.22;100.00;98441.13;105445;1260;72214;-63
2023/10/26 03:14:32;;;;;;;21.80;15.40;;;;;;;9.22;100.00;98440.38;105416;1259;69165;-63
2023/10/26 03:17:00;;;;;;;19.10;14.80;;;;;;;9.23;100.00;98441.07;105388;1258;69205;-63
2023/10/26 03:19:29;;;;;;;19.70;15.10;;;;;;;9.23;100.00;98438.45;105467;1256;72870;-63
2023/10/26 03:21:57;;;;;;;17.00;14.10;;;;;;;9.23;100.00;98438.98;105448;1258;82024;-63
2023/10/26 03:24:26;;;;;;;21.20;15.30;;;;;;;9.22;100.00;98433.77;105504;1257;73081;-62
2023/10/26 03:26:54;;;;;;;21.50;16.30;;;;;;;9.23;100.00;98433.21;105488;1254;69250;-63
2023/10/26 03:29:22;;;;;;;21.70;16.60;;;;;;;9.22;100.00;98431.33;105437;1259;69175;-63
2023/10/26 03:31:51;;;;;;;26.30;16.60;;;;;;;9.22;100.00;98429.27;105427;1261;71386;-63
2023/10/26 03:34:19;;;;;;;26.10;18.90;;;;;;;9.22;100.00;98429.61;105477;1259;81342;-63
2023/10/26 03:36:47;;;;;;;24.70;17.60;;;;;;;9.22;100.00;98426.48;105452;1256;71319;-63
2023/10/26 03:39:16;;;;;;;22.00;17.30;;;;;;;9.22;100.00;98421.58;105452;1259;69119;-63
2023/10/26 03:41:44;;;;;;;24.00;17.40;;;;;;;9.24;100.00;98417.66;105386;1258;69809;-63
2023/10/26 03:44:12;;;;;;;24.40;16.60;;;;;;;9.23;100.00;98417.33;105468;1254;72502;-62
2023/10/26 03:46:40;;;;;;;24.10;17.40;;;;;;;9.24;100.00;98414.65;105443;1257;81277;-62
2023/10/26 03:49:08;;;;;;;25.80;17.10;;;;;;;9.25;100.00;98413.58;105443;1259;71451;-62
2023/10/26 03:51:37;;;;;;;21.20;16.40;;;;;;;9.25;100.00;98415.61;105450;1255;69231;-62
2023/10/26 03:54:05;;;;;;;22.80;16.50;;;;;;;9.27;100.00;98406.27;105521;1259;69151;-62
2023/10/26 03:56:33;;;;;;;22.00;16.80;;;;;;;9.28;100.00;98402.36;105254;1258;72876;-62
2023/10/26 03:59:02;;;;;;;21.20;16.50;;;;;;;9.29;100.00;98397.30;105425;1256;81652;-62
2023/10/26 04:01:30;;;;;;;19.60;15.30;;;;;;;9.28;100.00;98397.13;105493;1257;73033;-62
2023/10/26 04:03:59;;;;;;;22.80;16.20;;;;;;;9.29;100.00;98393.61;105552;1259;69090;-63
2023/10/26 04:06:29;;;;;;;22.60;16.60;;;;;;;9.30;100.00;98391.45;105461;1256;69199;-61
2023/10/26 04:08:58;;;;;;;22.80;16.90;;;;;;;9.30;100.00;98390.73;105503;1257;72942;-62
2023/10/26 04:11:27;;;;;;;25.30;17.70;;;;;;;9.31;100.00;98383.36;105521;1253;82623;-62
2023/10/26 04:13:57;;;;;;;23.60;17.00;;;;;;;9.31;100.00;98381.60;105481;1259;70429;-62
2023/10/26 04:16:25;;;;;;;21.10;16.00;;;;;;;9.31;100.00;98379.52;105443;1257;69177;-61
2023/10/26 04:18:53;;;;;;;22.90;16.20;;;;;;;9.32;100.00;98377.23;105489;1266;69160;-62
2023/10/26 04:21:22;;;;;;;22.50;18.00;;;;;;;9.32;100.00;98375.81;105482;1259;72857;-61
2023/10/26 04:23:50;;;;;;;25.90;19.10;;;;;;;9.34;100.00;98372.04;105500;1257;81494;-61
2023/10/26 04:26:18;;;;;;;25.10;18.40;;;;;;;9.35;100.00;98368.08;105512;1257;72985;-61
2023/10/26 04:28:46;;;;;;;21.20;16.50;;;;;;;9.36;100.00;98363.17;105410;1256;69178;-60
2023/10/26 04:31:22;;;;;;;18.10;14.60;;;;;;;9.35;100.00;98358.14;105461;1257;69119;-61
2023/10/26 04:33:51;;;;;;;24.20;15.60;;;;;;;9.36;100.00;98357.58;105479;1258;72795;-60
2023/10/26 04:36:21;;;;;;;23.40;15.10;;;;;;;9.36;100.00;98352.20;105417;1257;81391;-60
2023/10/26 04:38:50;;;;;;;20.40;15.80;;;;;;;9.35;100.00;98350.32;105466;1254;73029;-61
2023/10/26 04:41:18;;;;;;;23.00;15.60;;;;;;;9.36;100.00;98339.64;105493;1259;69122;-60
2023/10/26 04:43:46;;;;;;;19.70;15.10;;;;;;;9.37;100.00;98332.73;105409;1257;69205;-60
2023/10/26 04:46:14;;;;;;;22.40;15.70;;;;;;;9.38;100.00;98332.86;105443;1255;72311;-60
2023/10/26 04:48:43;;;;;;;22.10;15.70;;;;;;;9.38;100.00;98330.63;105456;1254;82766;-60
2023/10/26 04:51:11;;;;;;;20.60;15.10;;;;;;;9.38;100.00;98324.17;105433;1257;73114;-61
2023/10/26 04:53:39;;;;;;;19.20;14.80;;;;;;;9.38;100.00;98326.56;105520;1256;69117;-60
2023/10/26 04:56:10;;;;;;;20.00;15.80;;;;;;;9.41;100.00;98324.36;105450;1255;69184;-61
2023/10/26 04:58:39;;;;;;;26.10;16.60;;;;;;;9.43;100.00;98324.89;105485;1254;72981;-60
2023/10/26 05:01:07;;;;;;;21.50;16.40;;;;;;;9.45;100.00;98324.08;105488;1258;82723;-60
2023/10/26 05:03:37;;;;;;;22.40;16.20;;;;;;;9.46;100.00;98324.73;105481;1258;71663;-60
2023/10/26 05:06:06;;;;;;;22.60;16.80;;;;;;;9.47;100.00;98324.64;105487;1258;69186;-60
2023/10/26 05:08:35;;;;;;;21.10;15.80;;;;;;;9.49;100.00;98323.13;105561;1257;69168;-60
2023/10/26 05:11:03;;;;;;;19.40;14.60;;;;;;;9.49;100.00;98321.75;105499;1259;73107;-61
2023/10/26 05:13:31;;;;;;;20.00;15.10;;;;;;;9.49;100.00;98323.13;105479;1257;82223;-61
2023/10/26 05:16:01;;;;;;;21.70;14.00;;;;;;;9.49;100.00;98323.09;105419;1253;72871;-60
2023/10/26 05:18:30;;;;;;;20.60;14.80;;;;;;;9.50;100.00;98329.70;105450;1257;69128;-60
2023/10/26 05:20:59;;;;;;;22.10;15.40;;;;;;;9.50;100.00;98327.39;105513;1257;69188;-61
2023/10/26 05:23:27;;;;;;;19.60;15.30;;;;;;;9.50;100.00;98323.05;105487;1257;72911;-61
2023/10/26 05:25:56;;;;;;;19.70;14.80;;;;;;;9.50;100.00;98326.73;105420;1257;81200;-61
2023/10/26 05:28:24;;;;;;;22.30;14.60;;;;;;;9.50;100.00;98325.16;105433;1256;72868;-61
2023/10/26 05:30:52;;;;;;;18.20;13.60;;;;;;;9.50;100.00;98325.48;105417;1253;69173;-61
2023/10/26 05:33:20;;;;;;;21.30;15.70;;;;;;;9.50;100.00;98323.59;105533;1253;69196;-60
2023/10/26 05:35:48;;;;;;;22.40;15.60;;;;;;;9.49;100.00;98323.33;105604;1256;74542;-61
2023/10/26 05:38:19;;;;;;;20.90;16.20;;;;;;;9.49;100.00;98325.02;105638;1256;81801;-60
2023/10/26 05:40:49;;;;;;;22.60;16.40;;;;;;;9.52;100.00;98321.36;105645;1256;73877;-61
2023/10/26 05:43:17;;;;;;;20.40;16.10;;;;;;;9.55;100.00;98321.52;105708;1255;69052;-61
2023/10/26 05:45:46;;;;;;;20.30;15.00;;;;;;;9.57;100.00;98323.42;105784;1256;69179;-60
2023/10/26 05:48:14;;;;;;;18.90;15.10;;;;;;;9.62;100.00;98323.14;105749;1257;74047;-61
2023/10/26 05:50:43;;;;;;;20.80;14.40;;;;;;;9.66;100.00;98324.47;105560;1254;83224;-60
2023/10/26 05:53:11;;;;;;;19.20;14.40;;;;;;;9.71;100.00;98327.61;105555;1258;70840;-60
2023/10/26 05:55:39;;;;;;;20.60;15.60;;;;;;;9.74;100.00;98329.27;105627;1252;69098;-60
2023/10/26 05:58:11;;;;;;;22.10;14.50;;;;;;;9.79;100.00;98329.65;105734;1254;69198;-60
2023/10/26 06:00:39;;;;;;;19.10;14.30;;;;;;;9.84;100.00;98334.60;105494;1255;73528;-61
2023/10/26 06:03:07;;;;;;;20.00;15.50;;;;;;;9.87;100.00;98332.81;105531;1257;81261;-63
2023/10/26 06:05:36;;;;;;;39.10;22.00;;;;;;;9.90;100.00;98336.78;105731;1254;72707;-61
2023/10/26 06:08:04;;;;;;;65.30;30.50;;;;;;;9.94;100.00;98339.16;105610;1255;69267;-61
2023/10/26 06:10:33;;;;;;;25.90;17.50;;;;;;;9.96;100.00;98337.93;105805;1254;69197;-61
2023/10/26 06:13:02;;;;;;;23.50;14.60;;;;;;;9.99;100.00;98341.58;105535;1254;72200;-61
2023/10/26 06:15:30;;;;;;;19.30;14.80;;;;;;;10.02;100.00;98339.79;105720;1257;82245;-61
2023/10/26 06:17:59;;;;;;;22.20;15.30;;;;;;;10.06;100.00;98341.30;105723;1257;71798;-61
2023/10/26 06:20:30;;;;;;;20.90;15.70;;;;;;;10.09;100.00;98340.41;105643;1257;69459;-61
2023/10/26 06:22:58;;;;;;;19.50;15.50;;;;;;;10.13;100.00;98342.02;105603;1254;69167;-61
2023/10/26 06:25:28;;;;;;;20.80;16.40;;;;;;;10.19;100.00;98344.60;105871;1253;73711;-60
2023/10/26 06:27:56;;;;;;;20.20;15.90;;;;;;;10.25;100.00;98343.82;105787;1254;81075;-58
2023/10/26 06:30:25;;;;;;;22.10;16.20;;;;;;;10.30;100.00;98343.00;105606;1254;72209;-60
2023/10/26 06:32:53;;;;;;;19.60;15.60;;;;;;;10.35;100.00;98344.23;105424;1258;69153;-60
2023/10/26 06:35:21;;;;;;;22.60;16.70;;;;;;;10.41;100.00;98347.48;105436;1257;69254;-60
2023/10/26 06:37:49;;;;;;;19.30;16.00;;;;;;;10.47;100.00;98347.21;105486;1254;74177;-60
2023/10/26 06:40:17;;;;;;;21.50;15.70;;;;;;;10.54;100.00;98348.36;105593;1256;81989;-60
2023/10/26 06:42:45;;;;;;;20.10;15.90;;;;;;;10.57;100.00;98348.67;105582;1256;71666;-60
2023/10/26 06:45:13;;;;;;;19.50;15.00;;;;;;;10.58;100.00;98350.87;105431;1257;69133;-60
2023/10/26 06:47:42;;;;;;;20.80;15.60;;;;;;;10.59;100.00;98350.41;105584;1257;69003;-60
2023/10/26 06:50:10;;;;;;;17.70;15.00;;;;;;;10.60;100.00;98351.22;105925;1254;71584;-63
2023/10/26 06:52:38;;;;;;;19.40;14.70;;;;;;;10.61;100.00;98350.12;105559;1257;83266;-63
2023/10/26 06:55:07;;;;;;;20.20;15.10;;;;;;;10.60;100.00;98351.80;105737;1257;72090;-63
2023/10/26 06:57:46;;;;;;;20.40;15.00;;;;;;;10.60;100.00;98350.69;105480;1257;69142;-62
2023/10/26 07:00:14;;;;;;;19.40;14.60;;;;;;;10.60;100.00;98350.05;105480;1258;69107;-63
2023/10/26 07:02:44;;;;;;;18.40;14.30;;;;;;;10.59;100.00;98353.91;105638;1256;72720;-63
2023/10/26 07:05:12;;;;;;;21.80;16.20;;;;;;;10.58;100.00;98354.89;105468;1257;81732;-66
2023/10/26 07:07:41;;;;;;;23.30;15.90;;;;;;;10.56;100.00;98353.98;105704;1257;70244;-64
2023/10/26 07:10:14;;;;;;;23.30;16.50;;;;;;;10.54;100.00;98354.50;105497;1265;69096;-64
2023/10/26 07:12:43;;;;;;;20.70;15.10;;;;;;;10.52;100.00;98356.52;105549;1257;69143;-65
2023/10/26 07:15:11;;;;;;;21.20;16.00;;;;;;;10.48;100.00;98356.59;105645;1256;74824;-65
2023/10/26 07:17:40;;;;;;;17.50;13.40;;;;;;;10.43;100.00;98354.69;105537;1257;82869;-64
2023/10/26 07:20:09;;;;;;;20.40;14.40;;;;;;;10.39;100.00;98353.90;105403;1254;72373;-65
2023/10/26 07:22:38;;;;;;;20.70;14.70;;;;;;;10.38;100.00;98355.37;105511;1254;69093;-65
2023/10/26 07:25:07;;;;;;;19.00;15.60;;;;;;;10.38;100.00;98358.86;105655;1257;69189;-66
2023/10/26 07:27:35;;;;;;;19.00;14.50;;;;;;;10.39;100.00;98360.69;105730;1255;74206;-63
2023/10/26 07:30:05;;;;;;;20.30;14.20;;;;;;;10.40;100.00;98361.86;105749;1254;81789;-64
2023/10/26 07:32:33;;;;;;;20.30;14.90;;;;;;;10.40;100.00;98360.65;105781;1254;71722;-63
2023/10/26 07:35:02;;;;;;;18.50;14.80;;;;;;;10.40;100.00;98359.23;105949;1256;69122;-64
2023/10/26 07:37:30;;;;;;;24.20;14.40;;;;;;;10.42;100.00;98362.45;105609;1257;69170;-62
2023/10/26 07:39:58;;;;;;;19.30;14.10;;;;;;;10.43;100.00;98360.82;105462;1254;71677;-62
2023/10/26 07:42:47;;;;;;;19.60;14.40;;;;;;;10.45;100.00;98365.17;105488;1257;81830;-61
2023/10/26 07:45:16;;;;;;;19.80;15.10;;;;;;;10.45;100.00;98367.10;105665;1255;71929;-60
2023/10/26 07:47:45;;;;;;;18.60;14.80;;;;;;;10.47;100.00;98361.19;105605;1257;69183;-60
2023/10/26 07:50:16;;;;;;;18.20;14.20;;;;;;;10.48;100.00;98360.29;105607;1256;69139;-61
2023/10/26 07:52:45;;;;;;;19.30;14.80;;;;;;;10.50;100.00;98364.69;105605;1253;73409;-61
2023/10/26 07:55:13;;;;;;;18.80;14.10;;;;;;;10.51;100.00;98365.67;105777;1257;81510;-61
2023/10/26 07:57:41;;;;;;;18.40;14.10;;;;;;;10.52;100.00;98363.15;105444;1256;71670;-61
2023/10/26 08:00:11;;;;;;;18.20;12.60;;;;;;;10.54;100.00;98363.73;105477;1257;69195;-61
2023/10/26 08:02:40;;;;;;;17.40;12.60;;;;;;;10.54;100.00;98366.13;105674;1256;69122;-61
2023/10/26 08:05:09;;;;;;;15.30;12.10;;;;;;;10.57;100.00;98363.53;105649;1257;75035;-61
2023/10/26 08:07:38;;;;;;;15.60;11.90;;;;;;;10.58;100.00;98365.52;105744;1253;82235;-61
2023/10/26 08:10:07;;;;;;;14.90;10.90;;;;;;;10.60;100.00;98366.23;105778;1254;71942;-65
2023/10/26 08:12:35;;;;;;;14.70;11.30;;;;;;;10.62;100.00;98367.48;105420;1256;69303;-65
2023/10/26 08:15:04;;;;;;;14.50;11.00;;;;;;;10.68;100.00;98365.36;105574;1257;69148;-65
2023/10/26 08:17:52;;;;;;;16.10;11.80;;;;;;;10.75;100.00;98364.48;105573;1254;71967;-64
2023/10/26 08:20:20;;;;;;;15.00;10.80;;;;;;;10.84;100.00;98364.36;105558;1255;82413;-63
2023/10/26 08:22:49;;;;;;;12.50;10.00;;;;;;;10.94;100.00;98364.95;105540;1257;71616;-62
2023/10/26 08:25:18;;;;;;;12.10;10.10;;;;;;;11.03;100.00;98365.66;105516;1253;69123;-61
2023/10/26 08:27:52;;;;;;;12.70;9.20;;;;;;;11.11;100.00;98364.08;105619;1253;69084;-62
2023/10/26 08:30:20;;;;;;;10.20;7.70;;;;;;;11.18;100.00;98366.84;105606;1252;72860;-62
2023/10/26 08:32:53;;;;;;;11.10;8.60;;;;;;;11.24;100.00;98370.09;105641;1254;82021;-62
2023/10/26 08:35:22;;;;;;;9.80;7.10;;;;;;;11.33;100.00;98372.11;105591;1254;72239;-63
2023/10/26 08:37:51;;;;;;;13.90;9.00;;;;;;;11.41;100.00;98374.13;105622;1252;69176;-63
2023/10/26 08:40:20;;;;;;;10.80;7.80;;;;;;;11.47;100.00;98371.73;105568;1257;69131;-63
2023/10/26 08:42:49;;;;;;;7.10;5.50;;;;;;;11.53;100.00;98371.67;105626;1255;72930;-61
2023/10/26 08:45:21;;;;;;;6.00;4.80;;;;;;;11.58;100.00;98374.41;105582;1256;81659;-60
2023/10/26 08:47:50;;;;;;;2.70;1.70;;;;;;;11.65;100.00;98377.06;105586;1254;70755;-60
2023/10/26 08:50:20;;;;;;;1.20;1.00;;;;;;;11.69;100.00;98377.48;105578;1253;69093;-60
2023/10/26 08:52:48;;;;;;;1.10;0.70;;;;;;;11.71;100.00;98378.89;105531;1254;69177;-59
2023/10/26 08:55:17;;;;;;;1.50;0.60;;;;;;;11.72;100.00;98384.99;105629;1254;72842;-59
2023/10/26 08:57:46;;;;;;;1.90;0.70;;;;;;;11.70;100.00;98387.20;105570;1256;81999;-59
2023/10/26 09:00:16;;;;;;;0.80;0.40;;;;;;;11.68;100.00;98390.34;105599;1254;72785;-59
2023/10/26 09:02:45;;;;;;;1.20;0.60;;;;;;;11.64;100.00;98386.98;105610;1256;69162;-59
2023/10/26 09:05:15;;;;;;;1.20;0.60;;;;;;;11.62;100.00;98390.60;105510;1256;157132;-60
2023/10/26 09:07:43;;;;;;;0.50;0.50;;;;;;;11.59;100.00;98391.02;105586;1254;72861;-60
2023/10/26 09:10:11;;;;;;;1.50;0.60;;;;;;;11.55;100.00;98395.13;105581;1256;81338;-59
2023/10/26 09:13:00;;;;;;;0.60;0.60;;;;;;;11.55;100.00;98397.94;105593;1256;71461;-59
2023/10/26 09:15:29;;;;;;;1.70;0.80;;;;;;;11.55;100.00;98397.22;105557;1255;69116;-60
2023/10/26 09:17:57;;;;;;;2.40;0.70;;;;;;;11.55;100.00;98395.83;105628;1254;69176;-59
2023/10/26 09:20:26;;;;;;;1.60;0.80;;;;;;;11.55;100.00;98402.28;105626;1253;71725;-60
2023/10/26 09:22:55;;;;;;;3.70;0.80;;;;;;;11.55;100.00;98398.09;105632;1255;81593;-59
2023/10/26 09:25:23;;;;;;;3.40;0.80;;;;;;;11.56;100.00;98402.60;105527;1253;71397;-59
2023/10/26 09:28:02;;;;;;;3.00;0.60;;;;;;;11.56;100.00;98405.74;105590;1252;69708;-59
2023/10/26 09:30:31;;;;;;;4.50;0.80;;;;;;;11.54;100.00;98407.92;105566;1256;69195;-59
2023/10/26 09:33:02;;;;;;;1.10;0.70;;;;;;;11.54;100.00;98406.54;105682;1255;72798;-59
2023/10/26 09:35:32;;;;;;;1.50;0.80;;;;;;;11.54;100.00;98411.62;105638;1253;82813;-61
2023/10/26 09:38:01;;;;;;;4.10;0.80;;;;;;;11.56;100.00;98409.27;105546;1257;72718;-61
2023/10/26 09:40:29;;;;;;;1.00;0.60;;;;;;;11.56;100.00;98410.95;105516;1256;69120;-61
2023/10/26 09:42:57;;;;;;;1.40;0.80;;;;;;;11.59;100.00;98410.89;105622;1253;69229;-61
2023/10/26 09:45:26;;;;;;;2.10;0.60;;;;;;;11.64;100.00;98413.91;105699;1253;72586;-58
2023/10/26 09:47:55;;;;;;;0.90;0.60;;;;;;;11.70;100.00;98419.05;105627;1255;80875;-58
2023/10/26 09:50:24;;;;;;;1.00;0.60;;;;;;;11.77;100.00;98418.20;105634;1257;71878;-59
2023/10/26 09:52:53;;;;;;;0.90;0.60;;;;;;;11.82;100.00;98413.64;105643;1256;69052;-59
2023/10/26 09:55:22;;;;;;;2.80;0.50;;;;;;;11.88;100.00;98418.45;105642;1253;69169;-59
2023/10/26 09:57:53;;;;;;;1.30;0.60;;;;;;;11.95;100.00;98416.56;105467;1257;73254;-59
2023/10/26 10:00:29;;;;;;;2.80;0.50;;;;;;;12.00;100.00;98414.42;105737;1255;81720;-59
2023/10/26 10:03:17;;;;;;;2.40;0.60;;;;;;;12.03;100.00;98415.27;105631;1253;70657;-59
2023/10/26 10:05:47;;;;;;;0.20;0.20;;;;;;;12.09;100.00;98416.52;105700;1255;69189;-59
2023/10/26 10:08:54;;;;;;;1.50;0.50;;;;;;;12.10;100.00;98415.93;105577;1254;69150;-60
2023/10/26 10:11:22;;;;;;;0.80;0.40;;;;;;;12.13;100.00;98413.13;105842;1253;73032;-59
2023/10/26 10:13:51;;;;;;;0.60;0.40;;;;;;;12.15;100.00;98415.04;105620;1255;83017;-60
2023/10/26 10:16:34;;;;;;;0.60;0.30;;;;;;;12.17;100.00;98420.48;105706;1255;71354;-61
2023/10/26 10:19:23;;;;;;;1.60;0.40;;;;;;;12.18;100.00;98417.64;105573;1252;69169;-60
2023/10/26 10:21:51;;;;;;;2.30;0.40;;;;;;;12.17;100.00;98417.72;105577;1254;69170;-61
2023/10/26 10:24:38;;;;;;;0.80;0.40;;;;;;;12.16;100.00;98417.80;105758;1254;74227;-60
2023/10/26 10:27:12;;;;;;;1.30;0.40;;;;;;;12.12;100.00;98415.77;105783;1255;82639;-59
2023/10/26 10:29:41;;;;;;;0.60;0.40;;;;;;;12.11;100.00;98417.10;105484;1253;72058;-60
2023/10/26 10:32:10;;;;;;;0.90;0.50;;;;;;;12.07;100.00;98419.84;105758;1256;69194;-60
2023/10/26 10:34:44;;;;;;;0.50;0.30;;;;;;;12.05;100.00;98418.95;105558;1253;69279;-60
2023/10/26 10:37:21;;;;;;;1.20;0.50;;;;;;;12.04;100.00;98419.18;105572;1255;72856;-60
2023/10/26 10:40:12;;;;;;;0.80;0.40;;;;;;;12.02;100.00;98419.46;105590;1253;82922;-61
2023/10/26 10:42:45;;;;;;;0.90;0.40;;;;;;;12.02;100.00;98419.20;105461;1256;71859;-60
2023/10/26 10:45:14;;;;;;;3.40;0.50;;;;;;;12.02;100.00;98421.45;105496;1253;69001;-60
2023/10/26 10:47:44;;;;;;;0.70;0.40;;;;;;;12.01;100.00;98418.92;105664;1253;69026;-60
2023/10/26 10:50:23;;;;;;;1.50;0.40;;;;;;;12.00;100.00;98417.21;105583;1253;73959;-60
2023/10/26 10:52:56;;;;;;;1.30;0.40;;;;;;;12.01;100.00;98415.77;105745;1253;80872;-59
2023/10/26 10:55:28;;;;;;;0.80;0.30;;;;;;;11.99;100.00;98415.16;105466;1253;70603;-60
2023/10/26 10:58:00;;;;;;;0.60;0.50;;;;;;;12.02;100.00;98415.31;105490;1256;69261;-60
2023/10/26 11:00:44;;;;;;;0.90;0.50;;;;;;;12.06;100.00;98415.52;105504;1255;69190;-61
2023/10/26 11:03:26;;;;;;;0.40;0.30;;;;;;;12.14;100.00;98416.05;105584;1254;71955;-60
2023/10/26 11:05:54;;;;;;;1.30;0.40;;;;;;;12.20;100.00;98413.31;105596;1253;81749;-60
2023/10/26 11:08:22;;;;;;;2.20;0.80;;;;;;;12.23;100.00;98409.36;105559;1254;70698;-61
2023/10/26 11:10:52;;;;;;;0.70;0.40;;;;;;;12.26;100.00;98412.78;105532;1253;69406;-61
2023/10/26 11:13:21;;;;;;;1.80;0.50;;;;;;;12.28;100.00;98413.53;105508;1254;69168;-61
2023/10/26 11:15:50;;;;;;;1.10;0.50;;;;;;;12.29;100.00;98411.71;105558;1255;72880;-60
2023/10/26 11:18:18;;;;;;;1.50;0.20;;;;;;;12.34;100.00;98414.55;105501;1256;81858;-61
2023/10/26 11:20:47;;;;;;;0.90;0.30;;;;;;;12.31;100.00;98416.63;105548;1253;71664;-62